createdAt,value
2022-08-25T00:02:02.056Z,99.90
2022-08-25T00:04:31.483Z,99.90
2022-08-25T00:07:03.293Z,99.90
2022-08-25T00:09:33.610Z,99.90
2022-08-25T00:12:02.757Z,99.90
2022-08-25T00:14:35.074Z,99.90
2022-08-25T00:17:05.945Z,99.90
2022-08-25T00:19:39.732Z,99.90
2022-08-25T00:22:08.839Z,99.90
2022-08-25T00:24:37.411Z,99.90
2022-08-25T00:27:06.367Z,99.90
2022-08-25T00:29:37.961Z,99.90
2022-08-25T00:32:08.021Z,99.90
2022-08-25T00:34:38.675Z,99.90
2022-08-25T00:37:09.234Z,99.90
2022-08-25T00:39:38.191Z,99.90
2022-08-25T00:42:15.837Z,99.90
2022-08-25T00:44:45.099Z,99.90
2022-08-25T00:47:14.912Z,99.90
2022-08-25T00:49:45.737Z,99.90
2022-08-25T00:52:17.524Z,99.90
2022-08-25T00:54:52.166Z,99.90
2022-08-25T00:57:34.000Z,99.90
2022-08-25T01:00:08.116Z,99.90
2022-08-25T01:02:38.233Z,99.90
2022-08-25T01:05:07.964Z,99.90
2022-08-25T01:07:37.496Z,99.90
2022-08-25T01:10:07.641Z,99.90
2022-08-25T01:12:36.512Z,99.90
2022-08-25T01:15:07.513Z,99.90
2022-08-25T01:17:47.923Z,99.90
2022-08-25T01:20:18.999Z,99.90
2022-08-25T01:22:55.063Z,99.90
2022-08-25T01:25:35.027Z,99.90
2022-08-25T01:28:03.726Z,99.90
2022-08-25T01:30:32.172Z,99.90
2022-08-25T01:33:00.478Z,99.90
2022-08-25T01:35:28.743Z,99.90
2022-08-25T01:37:58.368Z,99.90
2022-08-25T01:40:26.674Z,99.90
2022-08-25T01:43:02.987Z,99.90
2022-08-25T01:45:31.275Z,99.90
2022-08-25T01:47:59.515Z,99.90
2022-08-25T01:50:28.592Z,99.90
2022-08-25T01:53:03.804Z,99.90
2022-08-25T01:55:51.434Z,99.90
2022-08-25T01:58:20.640Z,99.90
2022-08-25T02:00:50.512Z,99.90
2022-08-25T02:03:19.902Z,99.90
2022-08-25T02:05:48.814Z,99.90
2022-08-25T02:08:19.478Z,99.90
2022-08-25T02:10:48.132Z,99.90
2022-08-25T02:13:17.439Z,99.90
2022-08-25T02:15:48.384Z,99.90
2022-08-25T02:18:16.930Z,99.90
2022-08-25T02:20:45.258Z,99.90
2022-08-25T02:23:13.786Z,99.90
2022-08-25T02:25:44.224Z,99.90
2022-08-25T02:28:12.846Z,99.90
2022-08-25T02:30:42.986Z,99.90
2022-08-25T02:33:11.498Z,99.90
2022-08-25T02:35:40.035Z,99.90
2022-08-25T02:38:08.445Z,99.90
2022-08-25T02:40:36.610Z,99.90
2022-08-25T02:43:06.382Z,99.90
2022-08-25T02:45:34.678Z,99.90
2022-08-25T02:48:03.164Z,99.90
2022-08-25T02:50:32.167Z,99.90
2022-08-25T02:53:00.400Z,99.90
2022-08-25T02:55:29.733Z,99.90
2022-08-25T02:58:02.200Z,99.90
2022-08-25T03:00:31.928Z,99.90
2022-08-25T03:03:00.331Z,99.90
2022-08-25T03:05:28.784Z,99.90
2022-08-25T03:07:57.224Z,99.90
2022-08-25T03:10:26.507Z,99.90
2022-08-25T03:12:54.796Z,99.90
2022-08-25T03:15:25.612Z,99.90
2022-08-25T03:17:56.324Z,99.90
2022-08-25T03:20:28.783Z,99.90
2022-08-25T03:22:57.018Z,99.90
2022-08-25T03:25:42.840Z,99.90
2022-08-25T03:28:11.079Z,99.90
2022-08-25T03:30:39.439Z,99.90
2022-08-25T03:33:09.056Z,99.90
2022-08-25T03:35:37.395Z,99.90
2022-08-25T03:38:06.333Z,99.90
2022-08-25T03:40:34.743Z,99.90
2022-08-25T03:43:03.731Z,99.90
2022-08-25T03:45:32.420Z,99.90
2022-08-25T03:48:00.720Z,99.90
2022-08-25T03:50:30.484Z,99.90
2022-08-25T03:52:59.223Z,99.90
2022-08-25T03:55:27.980Z,99.90
2022-08-25T03:57:58.095Z,99.90
2022-08-25T04:00:26.455Z,99.90
2022-08-25T04:02:54.741Z,99.90
2022-08-25T04:05:23.243Z,99.90
2022-08-25T04:07:56.601Z,99.90
2022-08-25T04:10:24.891Z,99.90
2022-08-25T04:12:53.171Z,99.90
2022-08-25T04:15:21.582Z,99.90
2022-08-25T04:17:51.845Z,99.90
2022-08-25T04:20:20.796Z,99.90
2022-08-25T04:22:49.083Z,99.90
2022-08-25T04:25:18.938Z,99.90
2022-08-25T04:27:47.256Z,99.90
2022-08-25T04:30:16.414Z,99.90
2022-08-25T04:32:44.591Z,99.90
2022-08-25T04:35:12.864Z,99.90
2022-08-25T04:37:41.215Z,99.90
2022-08-25T04:40:10.782Z,99.90
2022-08-25T04:42:40.451Z,99.90
2022-08-25T04:45:09.521Z,99.90
2022-08-25T04:47:39.301Z,99.90
2022-08-25T04:50:08.572Z,99.90
2022-08-25T04:52:37.571Z,99.90
2022-08-25T04:55:06.261Z,99.90
2022-08-25T04:57:34.556Z,99.90
2022-08-25T05:00:05.859Z,99.90
2022-08-25T05:02:34.285Z,99.90
2022-08-25T05:05:04.097Z,99.90
2022-08-25T05:07:32.368Z,99.90
2022-08-25T05:10:00.580Z,99.90
2022-08-25T05:12:31.452Z,99.90
2022-08-25T05:15:21.847Z,99.90
2022-08-25T05:17:55.679Z,99.90
2022-08-25T05:20:24.612Z,99.90
2022-08-25T05:22:53.015Z,99.90
2022-08-25T05:25:21.241Z,99.90
2022-08-25T05:27:49.590Z,99.90
2022-08-25T05:30:17.812Z,99.90
2022-08-25T05:32:46.044Z,99.90
2022-08-25T05:35:16.460Z,99.90
2022-08-25T05:37:44.800Z,99.90
2022-08-25T05:40:13.678Z,99.90
2022-08-25T05:42:42.349Z,99.90
2022-08-25T05:45:16.665Z,99.90
2022-08-25T05:47:48.992Z,99.90
2022-08-25T05:50:19.519Z,99.90
2022-08-25T05:52:47.878Z,99.90
2022-08-25T05:55:16.316Z,99.90
2022-08-25T05:57:44.635Z,99.90
2022-08-25T06:00:13.529Z,99.90
2022-08-25T06:02:41.380Z,99.90
2022-08-25T06:05:10.143Z,99.90
2022-08-25T06:07:39.815Z,99.90
2022-08-25T06:10:11.851Z,99.90
2022-08-25T06:12:41.259Z,99.90
2022-08-25T06:15:13.060Z,99.80
2022-08-25T06:17:42.930Z,99.60
2022-08-25T06:20:14.047Z,99.40
2022-08-25T06:22:45.157Z,98.90
2022-08-25T06:25:15.723Z,98.40
2022-08-25T06:27:44.068Z,98.40
2022-08-25T06:30:16.239Z,97.90
2022-08-25T06:32:46.183Z,97.10
2022-08-25T06:35:16.133Z,96.90
2022-08-25T06:37:46.216Z,96.20
2022-08-25T06:40:16.490Z,95.80
2022-08-25T06:42:49.492Z,95.30
2022-08-25T06:45:19.814Z,95.30
2022-08-25T06:47:48.092Z,94.70
2022-08-25T06:50:16.474Z,93.70
2022-08-25T06:52:46.143Z,93.10
2022-08-25T06:55:14.516Z,92.40
2022-08-25T06:57:42.771Z,91.70
2022-08-25T07:00:12.462Z,90.70
2022-08-25T07:02:42.429Z,90.10
2022-08-25T07:05:17.159Z,88.70
2022-08-25T07:07:56.512Z,89.90
2022-08-25T07:10:24.894Z,90.20
2022-08-25T07:12:53.883Z,90.60
2022-08-25T07:15:22.212Z,90.40
2022-08-25T07:17:51.047Z,90.60
2022-08-25T07:20:19.793Z,90.50
2022-08-25T07:22:48.948Z,90.30
2022-08-25T07:25:18.732Z,90.60
2022-08-25T07:27:47.088Z,90.30
2022-08-25T07:30:15.651Z,88.00
2022-08-25T07:32:43.852Z,89.30
2022-08-25T07:35:19.173Z,88.40
2022-08-25T07:37:50.142Z,87.50
2022-08-25T07:40:22.846Z,86.80
2022-08-25T07:42:53.247Z,86.40
2022-08-25T07:45:29.516Z,86.00
2022-08-25T07:47:58.521Z,86.90
2022-08-25T07:50:27.498Z,86.00
2022-08-25T07:52:56.272Z,85.60
2022-08-25T07:55:30.097Z,85.10
2022-08-25T07:57:59.766Z,82.80
2022-08-25T08:00:30.282Z,81.20
2022-08-25T08:03:00.054Z,80.20
2022-08-25T08:05:32.947Z,80.00
2022-08-25T08:08:02.411Z,78.30
2022-08-25T08:10:54.140Z,78.70
2022-08-25T08:13:23.551Z,80.80
2022-08-25T08:15:51.915Z,79.30
2022-08-25T08:18:20.653Z,77.80
2022-08-25T08:20:50.179Z,77.70
2022-08-25T08:23:20.784Z,77.20
2022-08-25T08:25:50.509Z,76.80
2022-08-25T08:28:18.740Z,77.10
2022-08-25T08:30:53.430Z,76.20
2022-08-25T08:33:24.542Z,76.80
2022-08-25T08:36:05.442Z,77.60
2022-08-25T08:38:34.547Z,77.60
2022-08-25T08:41:40.083Z,73.30
2022-08-25T08:44:28.899Z,74.40
2022-08-25T08:47:05.291Z,74.80
2022-08-25T08:49:46.785Z,75.40
2022-08-25T08:52:19.217Z,74.80
2022-08-25T08:54:51.856Z,76.40
2022-08-25T08:57:29.251Z,75.10
2022-08-25T09:00:01.606Z,74.60
2022-08-25T09:02:39.218Z,73.20
2022-08-25T09:05:21.816Z,71.50
2022-08-25T09:07:56.048Z,71.60
2022-08-25T09:10:27.639Z,71.00
2022-08-25T09:13:12.201Z,71.90
2022-08-25T09:16:03.877Z,71.20
2022-08-25T09:18:50.952Z,71.00
2022-08-25T09:21:31.002Z,70.50
2022-08-25T09:24:25.104Z,70.10
2022-08-25T09:27:06.161Z,70.40
2022-08-25T09:29:49.212Z,70.00
2022-08-25T09:32:24.163Z,70.00
2022-08-25T09:35:01.983Z,70.60
2022-08-25T09:37:30.372Z,70.00
2022-08-25T09:40:00.608Z,65.40
2022-08-25T09:42:48.182Z,65.90
2022-08-25T09:45:34.134Z,64.60
2022-08-25T09:48:02.712Z,66.10
2022-08-25T09:50:35.043Z,66.40
2022-08-25T09:53:18.746Z,67.80
2022-08-25T09:56:00.278Z,66.60
2022-08-25T09:58:29.380Z,68.10
2022-08-25T10:01:13.091Z,67.80
2022-08-25T10:03:56.778Z,68.50
2022-08-25T10:06:26.975Z,65.60
2022-08-25T10:08:59.920Z,64.00
2022-08-25T10:11:37.883Z,63.00
2022-08-25T10:14:17.145Z,63.00
2022-08-25T10:16:47.947Z,64.10
2022-08-25T10:19:27.372Z,64.50
2022-08-25T10:22:10.841Z,61.60
2022-08-25T10:24:43.821Z,62.60
2022-08-25T10:27:25.023Z,63.70
2022-08-25T10:30:05.554Z,61.60
2022-08-25T10:33:01.805Z,59.90
2022-08-25T10:35:35.947Z,59.40
2022-08-25T10:38:13.360Z,59.60
2022-08-25T10:40:55.756Z,58.10
2022-08-25T10:43:34.681Z,61.70
2022-08-25T10:46:13.703Z,61.20
2022-08-25T10:48:58.188Z,58.10
2022-08-25T10:51:51.034Z,59.10
2022-08-25T10:54:33.655Z,60.40
2022-08-25T10:57:09.196Z,60.10
2022-08-25T10:59:53.525Z,58.10
2022-08-25T11:02:52.366Z,58.90
2022-08-25T11:05:28.062Z,61.10
2022-08-25T11:08:07.572Z,59.50
2022-08-25T11:10:43.056Z,57.80
2022-08-25T11:13:19.011Z,58.00
2022-08-25T11:16:15.839Z,57.90
2022-08-25T11:18:54.092Z,57.50
2022-08-25T11:21:28.315Z,61.80
2022-08-25T11:24:05.873Z,56.30
2022-08-25T11:26:37.455Z,58.50
2022-08-25T11:29:12.358Z,56.40
2022-08-25T11:31:43.911Z,58.40
2022-08-25T11:34:14.532Z,55.70
2022-08-25T11:36:51.457Z,57.70
2022-08-25T11:39:35.231Z,56.80
2022-08-25T11:42:16.919Z,54.20
2022-08-25T11:44:54.951Z,56.30
2022-08-25T11:47:42.026Z,56.20
2022-08-25T11:50:30.094Z,55.90
2022-08-25T11:53:03.843Z,56.20
2022-08-25T11:55:49.874Z,54.20
2022-08-25T11:58:32.724Z,54.00
2022-08-25T12:01:03.145Z,54.30
2022-08-25T12:03:53.931Z,56.00
2022-08-25T12:06:29.502Z,55.70
2022-08-25T12:09:19.541Z,54.10
2022-08-25T12:11:54.768Z,53.40
2022-08-25T12:14:44.560Z,54.90
2022-08-25T12:17:27.327Z,55.20
2022-08-25T12:19:59.333Z,56.60
2022-08-25T12:22:51.621Z,53.60
2022-08-25T12:25:33.889Z,53.30
2022-08-25T12:28:09.800Z,53.40
2022-08-25T12:30:47.070Z,54.00
2022-08-25T12:33:30.071Z,55.20
2022-08-25T12:36:00.321Z,54.20
2022-08-25T12:38:35.016Z,53.20
2022-08-25T12:41:10.789Z,54.70
2022-08-25T12:43:42.357Z,54.90
2022-08-25T12:46:40.105Z,55.90
2022-08-25T12:49:30.040Z,54.60
2022-08-25T12:52:02.809Z,52.70
2022-08-25T12:54:47.999Z,54.00
2022-08-25T12:57:40.470Z,53.50
2022-08-25T13:00:18.473Z,51.70
2022-08-25T13:03:35.187Z,52.30
2022-08-25T13:06:28.335Z,53.90
2022-08-25T13:09:38.349Z,51.90
2022-08-25T13:12:13.758Z,52.40
2022-08-25T13:14:45.160Z,54.80
2022-08-25T13:17:26.807Z,52.10
2022-08-25T13:20:16.451Z,51.90
2022-08-25T13:22:47.634Z,52.10
2022-08-25T13:25:23.042Z,53.10
2022-08-25T13:27:53.820Z,53.00
2022-08-25T13:30:29.740Z,51.00
2022-08-25T13:32:58.492Z,51.60
2022-08-25T13:35:32.313Z,50.90
2022-08-25T13:38:14.820Z,51.80
2022-08-25T13:40:43.346Z,55.60
2022-08-25T13:43:15.316Z,52.10
2022-08-25T13:45:46.847Z,52.50
2022-08-25T13:48:32.130Z,53.50
2022-08-25T13:51:10.034Z,54.60
2022-08-25T13:53:41.403Z,53.10
2022-08-25T13:56:10.480Z,50.90
2022-08-25T13:58:45.400Z,51.80
2022-08-25T14:01:22.419Z,51.80
2022-08-25T14:04:29.521Z,51.50
2022-08-25T14:07:34.357Z,53.20
2022-08-25T14:10:06.595Z,51.70
2022-08-25T14:12:39.508Z,52.10
2022-08-25T14:15:27.051Z,51.90
2022-08-25T14:18:05.320Z,53.10
2022-08-25T14:20:35.774Z,54.60
2022-08-25T14:23:12.768Z,56.30
2022-08-25T14:25:44.577Z,56.70
2022-08-25T14:28:15.111Z,53.20
2022-08-25T14:30:46.790Z,53.20
2022-08-25T14:33:19.681Z,50.70
2022-08-25T14:35:50.262Z,50.60
2022-08-25T14:38:20.519Z,52.10
2022-08-25T14:40:49.876Z,53.30
2022-08-25T14:43:23.791Z,51.90
2022-08-25T14:46:00.529Z,51.80
2022-08-25T14:48:37.054Z,51.30
2022-08-25T14:51:06.060Z,50.60
2022-08-25T14:53:34.334Z,52.50
2022-08-25T14:56:06.895Z,52.10
2022-08-25T14:58:50.771Z,50.40
2022-08-25T15:01:29.088Z,51.90
2022-08-25T15:04:04.712Z,53.50
2022-08-25T15:06:34.875Z,53.60
2022-08-25T15:09:08.199Z,55.70
2022-08-25T15:11:38.789Z,56.90
2022-08-25T15:14:12.112Z,56.60
2022-08-25T15:16:43.424Z,56.10
2022-08-25T15:19:16.498Z,56.40
2022-08-25T15:21:46.307Z,57.40
2022-08-25T15:24:17.768Z,52.50
2022-08-25T15:29:24.253Z,52.10
2022-08-25T15:31:53.607Z,51.50
2022-08-25T15:34:23.353Z,52.40
2022-08-25T15:36:52.456Z,53.40
2022-08-25T15:39:21.177Z,51.70
2022-08-25T15:41:52.155Z,51.90
2022-08-25T15:44:22.211Z,54.00
2022-08-25T15:46:53.501Z,51.00
2022-08-25T15:49:26.178Z,53.80
2022-08-25T15:51:58.838Z,53.90
2022-08-25T15:54:28.098Z,53.10
2022-08-25T15:56:56.931Z,55.10
2022-08-25T15:59:26.118Z,52.30
2022-08-25T16:01:56.616Z,52.90
2022-08-25T16:04:29.234Z,56.60
2022-08-25T16:06:58.662Z,54.40
2022-08-25T16:09:27.099Z,54.00
2022-08-25T16:11:56.587Z,52.80
2022-08-25T16:14:27.640Z,52.10
2022-08-25T16:16:58.427Z,50.80
2022-08-25T16:19:30.089Z,51.50
2022-08-25T16:21:59.894Z,53.90
2022-08-25T16:24:28.336Z,53.70
2022-08-25T16:27:11.619Z,56.20
2022-08-25T16:29:41.481Z,57.90
2022-08-25T16:32:11.259Z,59.60
2022-08-25T16:34:44.392Z,59.30
2022-08-25T16:37:12.932Z,59.80
2022-08-25T16:39:44.256Z,60.30
2022-08-25T16:42:12.846Z,61.10
2022-08-25T16:44:42.383Z,60.80
2022-08-25T16:47:11.057Z,60.90
2022-08-25T16:49:43.961Z,61.40
2022-08-25T16:52:28.536Z,61.50
2022-08-25T16:55:16.003Z,62.10
2022-08-25T16:57:47.558Z,62.10
2022-08-25T17:00:19.151Z,62.60
2022-08-25T17:02:49.087Z,63.60
2022-08-25T17:05:20.211Z,61.60
2022-08-25T17:08:08.797Z,61.40
2022-08-25T17:10:38.531Z,59.60
2022-08-25T17:13:07.560Z,58.00
2022-08-25T17:15:39.645Z,61.80
2022-08-25T17:18:08.541Z,65.90
2022-08-25T17:20:41.181Z,66.90
2022-08-25T17:23:12.742Z,67.70
2022-08-25T17:25:43.456Z,68.30
2022-08-25T17:28:12.811Z,68.70
2022-08-25T17:30:43.249Z,69.60
2022-08-25T17:33:11.753Z,70.30
2022-08-25T17:35:42.151Z,71.20
2022-08-25T17:38:11.833Z,71.80
2022-08-25T17:40:40.694Z,73.00
2022-08-25T17:43:10.957Z,72.70
2022-08-25T17:45:41.944Z,72.60
2022-08-25T17:48:13.190Z,73.10
2022-08-25T17:50:43.177Z,73.80
2022-08-25T17:53:12.196Z,74.40
2022-08-25T17:55:42.282Z,75.00
2022-08-25T17:58:13.505Z,76.00
2022-08-25T18:00:43.910Z,76.80
2022-08-25T18:03:12.902Z,77.70
2022-08-25T18:05:44.040Z,78.40
2022-08-25T18:08:14.485Z,79.20
2022-08-25T18:10:43.569Z,79.30
2022-08-25T18:13:11.913Z,79.70
2022-08-25T18:15:42.486Z,80.10
2022-08-25T18:18:12.453Z,80.40
2022-08-25T18:20:45.646Z,80.50
2022-08-25T18:23:15.597Z,80.20
2022-08-25T18:25:44.120Z,81.10
2022-08-25T18:28:13.431Z,81.10
2022-08-25T18:30:42.735Z,81.70
2022-08-25T18:33:12.027Z,81.50
2022-08-25T18:35:40.342Z,81.70
2022-08-25T18:38:28.601Z,81.70
2022-08-25T18:40:58.350Z,82.00
2022-08-25T18:43:26.964Z,82.90
2022-08-25T18:45:56.617Z,84.00
2022-08-25T18:48:26.736Z,84.20
2022-08-25T18:50:56.601Z,84.70
2022-08-25T18:53:30.706Z,84.80
2022-08-25T18:56:06.279Z,85.50
2022-08-25T18:58:34.523Z,86.30
2022-08-25T19:01:04.568Z,87.10
2022-08-25T19:03:36.877Z,87.40
2022-08-25T19:06:05.768Z,87.60
2022-08-25T19:08:36.508Z,87.90
2022-08-25T19:11:04.879Z,88.40
2022-08-25T19:13:34.812Z,88.80
2022-08-25T19:16:11.696Z,89.00
2022-08-25T19:18:41.514Z,89.60
2022-08-25T19:21:10.835Z,89.90
2022-08-25T19:23:40.499Z,90.10
2022-08-25T19:26:13.969Z,90.60
2022-08-25T19:28:48.883Z,90.80
2022-08-25T19:31:18.381Z,91.30
2022-08-25T19:33:47.056Z,91.60
2022-08-25T19:36:16.269Z,91.70
2022-08-25T19:38:46.209Z,92.00
2022-08-25T19:41:15.094Z,92.50
2022-08-25T19:43:55.755Z,93.10
2022-08-25T19:46:33.370Z,93.40
2022-08-25T19:49:08.062Z,93.90
2022-08-25T19:51:38.445Z,94.30
2022-08-25T19:54:10.380Z,95.10
2022-08-25T19:56:43.497Z,95.70
2022-08-25T19:59:16.498Z,96.20
2022-08-25T20:01:47.302Z,97.10
2022-08-25T20:04:16.761Z,97.90
2022-08-25T20:06:48.434Z,98.70
2022-08-25T20:09:35.564Z,99.20
2022-08-25T20:12:08.158Z,99.80
2022-08-25T20:14:36.594Z,99.90
2022-08-25T20:17:14.823Z,99.90
2022-08-25T20:19:53.634Z,99.90
2022-08-25T20:22:25.832Z,99.90
2022-08-25T20:24:57.809Z,99.90
2022-08-25T20:27:32.170Z,99.90
2022-08-25T20:30:02.449Z,99.90
2022-08-25T20:32:33.556Z,99.90
2022-08-25T20:35:02.212Z,99.90
2022-08-25T20:37:30.847Z,99.90
2022-08-25T20:40:00.668Z,99.90
2022-08-25T20:42:30.175Z,99.90
2022-08-25T20:44:59.018Z,99.90
2022-08-25T20:47:27.367Z,99.90
2022-08-25T20:49:56.396Z,99.90
2022-08-25T20:52:24.927Z,99.90
2022-08-25T20:54:53.153Z,99.90
2022-08-25T20:57:25.754Z,99.90
2022-08-25T20:59:55.919Z,99.90
2022-08-25T21:02:24.926Z,99.90
2022-08-25T21:04:54.140Z,99.90
2022-08-25T21:07:25.791Z,99.90
2022-08-25T21:09:54.267Z,99.90
2022-08-25T21:12:23.933Z,99.90
2022-08-25T21:14:52.787Z,99.90
2022-08-25T21:17:21.087Z,99.90
2022-08-25T21:19:50.094Z,99.90
2022-08-25T21:22:19.500Z,99.90
2022-08-25T21:24:48.503Z,99.90
2022-08-25T21:27:16.744Z,99.90
2022-08-25T21:29:55.173Z,99.90
2022-08-25T21:32:24.579Z,99.90
2022-08-25T21:34:54.253Z,99.90
2022-08-25T21:37:22.971Z,99.90
2022-08-25T21:39:52.037Z,99.90
2022-08-25T21:42:20.847Z,99.90
2022-08-25T21:44:52.063Z,99.90
2022-08-25T21:47:23.230Z,99.90
2022-08-25T21:49:52.029Z,99.90
2022-08-25T21:52:20.824Z,99.90
2022-08-25T21:54:49.082Z,99.90
2022-08-25T21:57:19.145Z,99.90
2022-08-25T21:59:54.320Z,99.90
2022-08-25T22:02:23.915Z,99.90
2022-08-25T22:04:52.854Z,99.90
2022-08-25T22:07:24.674Z,99.90
2022-08-25T22:09:53.800Z,99.90
2022-08-25T22:12:22.138Z,99.90
2022-08-25T22:14:50.837Z,99.90
2022-08-25T22:17:24.126Z,99.90
2022-08-25T22:19:54.040Z,99.90
2022-08-25T22:22:23.047Z,99.90
2022-08-25T22:24:53.083Z,99.90
2022-08-25T22:27:23.585Z,99.90
2022-08-25T22:29:53.408Z,99.90
2022-08-25T22:32:23.050Z,99.90
2022-08-25T22:34:51.400Z,99.90
2022-08-25T22:37:19.884Z,99.90
2022-08-25T22:39:48.236Z,99.90
2022-08-25T22:42:16.720Z,99.90
2022-08-25T22:44:45.157Z,99.90
2022-08-25T22:47:13.393Z,99.90
2022-08-25T22:49:43.587Z,99.90
2022-08-25T22:52:13.377Z,99.90
2022-08-25T22:54:42.483Z,99.90
2022-08-25T22:57:11.560Z,99.90
2022-08-25T22:59:40.535Z,99.90
2022-08-25T23:02:09.023Z,99.90
2022-08-25T23:04:41.117Z,99.90
2022-08-25T23:07:11.506Z,99.90
2022-08-25T23:09:39.838Z,99.90
2022-08-25T23:12:08.827Z,99.90
2022-08-25T23:14:37.896Z,99.90
2022-08-25T23:17:10.443Z,99.90
2022-08-25T23:19:38.758Z,99.90
2022-08-25T23:22:13.826Z,99.90
2022-08-25T23:24:48.966Z,99.90
2022-08-25T23:27:19.020Z,99.90
2022-08-25T23:29:50.368Z,99.90
2022-08-25T23:32:19.236Z,99.90
2022-08-25T23:34:47.731Z,99.90
2022-08-25T23:37:18.591Z,99.90
2022-08-25T23:39:49.848Z,99.90
2022-08-25T23:42:19.896Z,99.90
2022-08-25T23:44:48.534Z,99.90
2022-08-25T23:47:17.387Z,99.90
2022-08-25T23:49:48.046Z,99.90
2022-08-25T23:52:17.506Z,99.90
2022-08-25T23:54:47.792Z,99.90
2022-08-25T23:57:16.079Z,99.90
2022-08-25T23:59:46.996Z,99.90
